Terminal Aerodrome Forecast
Issued by NWS

Home | Current Version | Previous Version | Text Only | Print | Product List | Glossary On
Versions: 1 2 3 4 5 6 7 8 9 10 11 12
000
FTUS45 KPSR 271721
TAFIWA
TAF
KIWA 271721Z 2718/2818 10010G20KT P6SM VCSH BKN120 BKN200
      TEMPO 2718/2722 -RA BKN100
     FM272200 08008KT P6SM FEW080 SCT120 BKN250=

USA.gov is the U.S. government's official web portal to all federal, state and local government web resources and services.